Sandberg, California
Current Conditions -  °F | °C
As of 6:48 AM on Thursday 23 Oct 2014 (Local Time) from KSDB Reporting Station
Clear Clear  
Wind Chill: 67°   Ceiling: Unl
Heat Index: 67°   Visibility: 10mi
Dew Point: 27°   Wind: 6mph
Humidity: 22%   Direction: 180°S
Pressure: 30.14"   Gusts: NA
Location:  34.6849°N, 118.558°W
Report Text: KSDB 231348Z AUTO 18005KT 10SM CLR 19/M03 A3014 RMK AO2 SLP158 T01941028
Loading
Personal Weather Stations






























Interactive Weather Map
Tropical Storm Tracking
New forecast layout! Learn more

10-Day Weather Forecast

Advertisements
Track Severe Weather on mobile